sensor_id;sensor_type;location;lat;lon;timestamp;temperature;humidity
10314;DHT22;5202;49.138;10.090;2023-04-06T00:00:27;0.70;92.40
10314;DHT22;5202;49.138;10.090;2023-04-06T00:02:55;0.70;92.60
10314;DHT22;5202;49.138;10.090;2023-04-06T00:05:23;0.80;92.60
10314;DHT22;5202;49.138;10.090;2023-04-06T00:07:53;0.80;92.50
10314;DHT22;5202;49.138;10.090;2023-04-06T00:10:22;0.80;92.40
10314;DHT22;5202;49.138;10.090;2023-04-06T00:12:51;0.80;92.50
10314;DHT22;5202;49.138;10.090;2023-04-06T00:15:20;0.70;92.50
10314;DHT22;5202;49.138;10.090;2023-04-06T00:17:48;0.70;92.50
10314;DHT22;5202;49.138;10.090;2023-04-06T00:20:17;0.60;92.50
10314;DHT22;5202;49.138;10.090;2023-04-06T00:22:46;0.60;92.90
10314;DHT22;5202;49.138;10.090;2023-04-06T00:25:15;0.60;92.70
10314;DHT22;5202;49.138;10.090;2023-04-06T00:27:44;0.70;93.00
10314;DHT22;5202;49.138;10.090;2023-04-06T00:30:12;0.60;92.50
10314;DHT22;5202;49.138;10.090;2023-04-06T00:32:41;0.50;92.70
10314;DHT22;5202;49.138;10.090;2023-04-06T00:35:10;0.40;92.80
10314;DHT22;5202;49.138;10.090;2023-04-06T00:37:38;0.40;93.10
10314;DHT22;5202;49.138;10.090;2023-04-06T00:40:07;0.30;93.10
10314;DHT22;5202;49.138;10.090;2023-04-06T00:42:38;0.30;93.30
10314;DHT22;5202;49.138;10.090;2023-04-06T00:45:08;0.20;93.30
10314;DHT22;5202;49.138;10.090;2023-04-06T00:47:38;0.10;93.60
10314;DHT22;5202;49.138;10.090;2023-04-06T00:50:07;0.10;93.50
10314;DHT22;5202;49.138;10.090;2023-04-06T00:52:36;0.10;93.60
10314;DHT22;5202;49.138;10.090;2023-04-06T00:55:07;0.10;93.50
10314;DHT22;5202;49.138;10.090;2023-04-06T00:57:41;0.10;93.50
10314;DHT22;5202;49.138;10.090;2023-04-06T01:00:11;0.10;93.60
10314;DHT22;5202;49.138;10.090;2023-04-06T01:02:41;0.10;93.80
10314;DHT22;5202;49.138;10.090;2023-04-06T01:05:12;0.00;93.90
10314;DHT22;5202;49.138;10.090;2023-04-06T01:07:51;-0.10;93.70
10314;DHT22;5202;49.138;10.090;2023-04-06T01:10:24;-0.10;93.40
10314;DHT22;5202;49.138;10.090;2023-04-06T01:13:00;-0.10;93.10
10314;DHT22;5202;49.138;10.090;2023-04-06T01:15:45;-0.20;93.30
10314;DHT22;5202;49.138;10.090;2023-04-06T01:18:25;-0.30;93.50
10314;DHT22;5202;49.138;10.090;2023-04-06T01:21:06;-0.30;93.70
10314;DHT22;5202;49.138;10.090;2023-04-06T01:23:37;-0.30;93.80
10314;DHT22;5202;49.138;10.090;2023-04-06T01:26:05;-0.30;94.20
10314;DHT22;5202;49.138;10.090;2023-04-06T01:28:34;-0.30;94.00
10314;DHT22;5202;49.138;10.090;2023-04-06T01:31:24;-0.30;94.10
10314;DHT22;5202;49.138;10.090;2023-04-06T01:33:53;-0.20;94.00
10314;DHT22;5202;49.138;10.090;2023-04-06T01:36:24;-0.30;93.80
10314;DHT22;5202;49.138;10.090;2023-04-06T01:39:02;-0.40;93.90
10314;DHT22;5202;49.138;10.090;2023-04-06T01:41:34;-0.40;94.20
10314;DHT22;5202;49.138;10.090;2023-04-06T01:44:03;-0.50;94.20
10314;DHT22;5202;49.138;10.090;2023-04-06T01:46:32;-0.50;94.30
10314;DHT22;5202;49.138;10.090;2023-04-06T01:49:03;-0.50;94.80
10314;DHT22;5202;49.138;10.090;2023-04-06T01:51:37;-0.50;94.40
10314;DHT22;5202;49.138;10.090;2023-04-06T01:54:10;-0.60;94.80
10314;DHT22;5202;49.138;10.090;2023-04-06T01:57:03;-0.60;94.90
10314;DHT22;5202;49.138;10.090;2023-04-06T01:59:45;-0.70;95.20
10314;DHT22;5202;49.138;10.090;2023-04-06T02:02:39;-0.70;95.20
10314;DHT22;5202;49.138;10.090;2023-04-06T02:05:19;-0.70;95.20
10314;DHT22;5202;49.138;10.090;2023-04-06T02:07:50;-0.70;95.40
10314;DHT22;5202;49.138;10.090;2023-04-06T02:10:25;-0.70;95.40
10314;DHT22;5202;49.138;10.090;2023-04-06T02:12:55;-0.70;95.40
10314;DHT22;5202;49.138;10.090;2023-04-06T02:15:26;-0.70;95.70
10314;DHT22;5202;49.138;10.090;2023-04-06T02:17:54;-0.60;95.60
10314;DHT22;5202;49.138;10.090;2023-04-06T02:20:24;-0.60;95.50
10314;DHT22;5202;49.138;10.090;2023-04-06T02:22:52;-0.70;95.60
10314;DHT22;5202;49.138;10.090;2023-04-06T02:25:20;-0.70;95.40
10314;DHT22;5202;49.138;10.090;2023-04-06T02:27:50;-0.70;95.60
10314;DHT22;5202;49.138;10.090;2023-04-06T02:30:18;-0.80;95.30
10314;DHT22;5202;49.138;10.090;2023-04-06T02:32:47;-0.80;95.40
10314;DHT22;5202;49.138;10.090;2023-04-06T02:35:16;-0.80;95.50
10314;DHT22;5202;49.138;10.090;2023-04-06T02:37:48;-0.90;95.40
10314;DHT22;5202;49.138;10.090;2023-04-06T02:40:16;-0.90;95.40
10314;DHT22;5202;49.138;10.090;2023-04-06T02:42:45;-0.90;95.40
10314;DHT22;5202;49.138;10.090;2023-04-06T02:45:16;-0.90;95.50
10314;DHT22;5202;49.138;10.090;2023-04-06T02:47:46;-0.90;95.60
10314;DHT22;5202;49.138;10.090;2023-04-06T02:50:16;-0.90;95.60
10314;DHT22;5202;49.138;10.090;2023-04-06T02:52:53;-1.00;95.50
10314;DHT22;5202;49.138;10.090;2023-04-06T02:55:22;-1.00;95.70
10314;DHT22;5202;49.138;10.090;2023-04-06T02:57:50;-1.00;96.00
10314;DHT22;5202;49.138;10.090;2023-04-06T03:00:25;-1.00;95.70
10314;DHT22;5202;49.138;10.090;2023-04-06T03:02:53;-1.00;95.70
10314;DHT22;5202;49.138;10.090;2023-04-06T03:05:22;-1.00;95.70
10314;DHT22;5202;49.138;10.090;2023-04-06T03:07:51;-1.00;95.80
10314;DHT22;5202;49.138;10.090;2023-04-06T03:10:36;-1.00;95.80
10314;DHT22;5202;49.138;10.090;2023-04-06T03:13:05;-1.00;95.50
10314;DHT22;5202;49.138;10.090;2023-04-06T03:15:44;-1.00;95.50
10314;DHT22;5202;49.138;10.090;2023-04-06T03:18:20;-1.10;95.40
10314;DHT22;5202;49.138;10.090;2023-04-06T03:20:50;-1.00;95.70
10314;DHT22;5202;49.138;10.090;2023-04-06T03:23:22;-1.10;95.50
10314;DHT22;5202;49.138;10.090;2023-04-06T03:25:55;-1.10;95.80
10314;DHT22;5202;49.138;10.090;2023-04-06T03:28:23;-1.10;96.20
10314;DHT22;5202;49.138;10.090;2023-04-06T03:31:03;-1.10;95.90
10314;DHT22;5202;49.138;10.090;2023-04-06T03:33:45;-1.10;96.20
10314;DHT22;5202;49.138;10.090;2023-04-06T03:36:20;-1.10;96.00
10314;DHT22;5202;49.138;10.090;2023-04-06T03:38:48;-1.10;95.60
10314;DHT22;5202;49.138;10.090;2023-04-06T03:41:18;-1.10;95.80
10314;DHT22;5202;49.138;10.090;2023-04-06T03:44:02;-1.10;95.50
10314;DHT22;5202;49.138;10.090;2023-04-06T03:46:32;-1.10;95.50
10314;DHT22;5202;49.138;10.090;2023-04-06T03:49:00;-1.10;95.60
10314;DHT22;5202;49.138;10.090;2023-04-06T03:51:29;-1.10;95.40
10314;DHT22;5202;49.138;10.090;2023-04-06T03:53:57;-1.10;95.30
10314;DHT22;5202;49.138;10.090;2023-04-06T03:56:25;-1.20;95.40
10314;DHT22;5202;49.138;10.090;2023-04-06T03:58:54;-1.20;95.50
10314;DHT22;5202;49.138;10.090;2023-04-06T04:01:22;-1.20;95.60
10314;DHT22;5202;49.138;10.090;2023-04-06T04:03:53;-1.20;95.40
10314;DHT22;5202;49.138;10.090;2023-04-06T04:06:22;-1.30;95.50
10314;DHT22;5202;49.138;10.090;2023-04-06T04:08:51;-1.30;95.50
10314;DHT22;5202;49.138;10.090;2023-04-06T04:11:19;-1.40;95.60
10314;DHT22;5202;49.138;10.090;2023-04-06T04:13:53;-1.50;95.80
10314;DHT22;5202;49.138;10.090;2023-04-06T04:16:22;-1.40;96.30
10314;DHT22;5202;49.138;10.090;2023-04-06T04:18:52;-1.40;96.00
10314;DHT22;5202;49.138;10.090;2023-04-06T04:21:22;-1.40;96.10
10314;DHT22;5202;49.138;10.090;2023-04-06T04:23:52;-1.40;95.80
10314;DHT22;5202;49.138;10.090;2023-04-06T04:26:21;-1.20;96.00
10314;DHT22;5202;49.138;10.090;2023-04-06T04:28:49;-1.30;96.10
10314;DHT22;5202;49.138;10.090;2023-04-06T04:31:17;-1.30;95.80
10314;DHT22;5202;49.138;10.090;2023-04-06T04:33:54;-1.30;95.70
10314;DHT22;5202;49.138;10.090;2023-04-06T04:36:28;-1.30;95.40
10314;DHT22;5202;49.138;10.090;2023-04-06T04:38:58;-1.40;95.30
10314;DHT22;5202;49.138;10.090;2023-04-06T04:41:30;-1.40;95.50
10314;DHT22;5202;49.138;10.090;2023-04-06T04:44:00;-1.50;95.80
10314;DHT22;5202;49.138;10.090;2023-04-06T04:46:29;-1.50;95.90
10314;DHT22;5202;49.138;10.090;2023-04-06T04:48:59;-1.60;95.80
10314;DHT22;5202;49.138;10.090;2023-04-06T04:51:27;-1.60;96.00
10314;DHT22;5202;49.138;10.090;2023-04-06T04:54:11;-1.60;96.10
10314;DHT22;5202;49.138;10.090;2023-04-06T04:56:42;-1.60;96.20
10314;DHT22;5202;49.138;10.090;2023-04-06T04:59:23;-1.60;96.30
10314;DHT22;5202;49.138;10.090;2023-04-06T05:01:57;-1.60;96.40
10314;DHT22;5202;49.138;10.090;2023-04-06T05:04:37;-1.50;96.40
10314;DHT22;5202;49.138;10.090;2023-04-06T05:07:08;-1.50;96.20
10314;DHT22;5202;49.138;10.090;2023-04-06T05:09:39;-1.40;96.00
10314;DHT22;5202;49.138;10.090;2023-04-06T05:12:07;-1.40;95.80
10314;DHT22;5202;49.138;10.090;2023-04-06T05:14:46;-1.30;95.80
10314;DHT22;5202;49.138;10.090;2023-04-06T05:17:17;-1.40;95.80
10314;DHT22;5202;49.138;10.090;2023-04-06T05:19:46;-1.40;95.70
10314;DHT22;5202;49.138;10.090;2023-04-06T05:22:24;-1.40;96.00
10314;DHT22;5202;49.138;10.090;2023-04-06T05:25:02;-1.40;96.00
10314;DHT22;5202;49.138;10.090;2023-04-06T05:27:31;-1.30;96.10
10314;DHT22;5202;49.138;10.090;2023-04-06T05:30:06;-1.20;96.00
10314;DHT22;5202;49.138;10.090;2023-04-06T05:32:40;-1.20;96.00
10314;DHT22;5202;49.138;10.090;2023-04-06T05:35:11;-1.20;95.80
10314;DHT22;5202;49.138;10.090;2023-04-06T05:37:42;-1.20;96.00
10314;DHT22;5202;49.138;10.090;2023-04-06T05:40:11;-1.20;96.30
10314;DHT22;5202;49.138;10.090;2023-04-06T05:42:40;-1.20;96.70
10314;DHT22;5202;49.138;10.090;2023-04-06T05:45:11;-1.10;97.00
10314;DHT22;5202;49.138;10.090;2023-04-06T05:47:46;-1.00;97.10
10314;DHT22;5202;49.138;10.090;2023-04-06T05:50:28;-1.00;97.40
10314;DHT22;5202;49.138;10.090;2023-04-06T05:52:57;-0.90;97.60
10314;DHT22;5202;49.138;10.090;2023-04-06T05:55:31;-0.80;97.80
10314;DHT22;5202;49.138;10.090;2023-04-06T05:58:10;-0.70;97.90
10314;DHT22;5202;49.138;10.090;2023-04-06T06:00:39;-0.60;98.00
10314;DHT22;5202;49.138;10.090;2023-04-06T06:03:10;-0.50;97.40
10314;DHT22;5202;49.138;10.090;2023-04-06T06:05:59;-0.50;97.50
10314;DHT22;5202;49.138;10.090;2023-04-06T06:08:40;-0.40;97.80
10314;DHT22;5202;49.138;10.090;2023-04-06T06:11:13;-0.20;98.20
10314;DHT22;5202;49.138;10.090;2023-04-06T06:13:41;-0.10;98.30
10314;DHT22;5202;49.138;10.090;2023-04-06T06:16:10;0.00;98.30
10314;DHT22;5202;49.138;10.090;2023-04-06T06:18:44;0.10;98.30
10314;DHT22;5202;49.138;10.090;2023-04-06T06:21:14;0.20;98.30
10314;DHT22;5202;49.138;10.090;2023-04-06T06:23:44;0.40;97.90
10314;DHT22;5202;49.138;10.090;2023-04-06T06:26:18;0.50;97.20
10314;DHT22;5202;49.138;10.090;2023-04-06T06:28:48;0.60;97.00
10314;DHT22;5202;49.138;10.090;2023-04-06T06:31:16;0.70;96.50
10314;DHT22;5202;49.138;10.090;2023-04-06T06:33:47;0.90;95.90
10314;DHT22;5202;49.138;10.090;2023-04-06T06:36:20;1.10;95.60
10314;DHT22;5202;49.138;10.090;2023-04-06T06:38:49;1.20;95.90
10314;DHT22;5202;49.138;10.090;2023-04-06T06:41:19;1.40;96.40
10314;DHT22;5202;49.138;10.090;2023-04-06T06:43:48;1.60;96.10
10314;DHT22;5202;49.138;10.090;2023-04-06T06:46:17;1.70;95.60
10314;DHT22;5202;49.138;10.090;2023-04-06T06:48:45;1.80;94.70
10314;DHT22;5202;49.138;10.090;2023-04-06T06:51:14;1.90;95.00
10314;DHT22;5202;49.138;10.090;2023-04-06T06:53:43;2.00;94.70
10314;DHT22;5202;49.138;10.090;2023-04-06T06:56:12;2.20;94.30
10314;DHT22;5202;49.138;10.090;2023-04-06T06:58:40;2.40;94.20
10314;DHT22;5202;49.138;10.090;2023-04-06T07:01:09;2.60;94.50
10314;DHT22;5202;49.138;10.090;2023-04-06T07:03:37;2.60;94.80
10314;DHT22;5202;49.138;10.090;2023-04-06T07:06:06;2.90;98.00
10314;DHT22;5202;49.138;10.090;2023-04-06T07:08:34;3.00;95.90
10314;DHT22;5202;49.138;10.090;2023-04-06T07:11:04;3.20;93.50
10314;DHT22;5202;49.138;10.090;2023-04-06T07:13:32;3.40;92.90
10314;DHT22;5202;49.138;10.090;2023-04-06T07:16:01;3.60;93.70
10314;DHT22;5202;49.138;10.090;2023-04-06T07:18:30;3.80;94.50
10314;DHT22;5202;49.138;10.090;2023-04-06T07:21:02;3.90;94.70
10314;DHT22;5202;49.138;10.090;2023-04-06T07:23:31;4.10;94.70
10314;DHT22;5202;49.138;10.090;2023-04-06T07:25:59;4.30;94.00
10314;DHT22;5202;49.138;10.090;2023-04-06T07:28:30;4.50;93.10
10314;DHT22;5202;49.138;10.090;2023-04-06T07:31:00;4.70;94.60
10314;DHT22;5202;49.138;10.090;2023-04-06T07:33:29;4.70;91.90
10314;DHT22;5202;49.138;10.090;2023-04-06T07:35:58;4.90;92.20
10314;DHT22;5202;49.138;10.090;2023-04-06T07:38:26;5.10;92.40
10314;DHT22;5202;49.138;10.090;2023-04-06T07:40:55;5.20;90.60
10314;DHT22;5202;49.138;10.090;2023-04-06T07:43:24;5.30;88.20
10314;DHT22;5202;49.138;10.090;2023-04-06T07:45:54;5.50;87.10
10314;DHT22;5202;49.138;10.090;2023-04-06T07:48:24;5.50;87.30
10314;DHT22;5202;49.138;10.090;2023-04-06T07:50:54;5.70;85.90
10314;DHT22;5202;49.138;10.090;2023-04-06T07:53:28;5.60;84.40
10314;DHT22;5202;49.138;10.090;2023-04-06T07:55:58;5.60;84.80
10314;DHT22;5202;49.138;10.090;2023-04-06T07:58:26;5.80;83.20
10314;DHT22;5202;49.138;10.090;2023-04-06T08:00:56;5.90;80.70
10314;DHT22;5202;49.138;10.090;2023-04-06T08:03:25;6.10;81.50
10314;DHT22;5202;49.138;10.090;2023-04-06T08:05:56;6.30;81.90
10314;DHT22;5202;49.138;10.090;2023-04-06T08:08:24;6.40;79.30
10314;DHT22;5202;49.138;10.090;2023-04-06T08:10:53;6.40;78.50
10314;DHT22;5202;49.138;10.090;2023-04-06T08:13:21;6.70;77.70
10314;DHT22;5202;49.138;10.090;2023-04-06T08:15:49;6.80;76.00
10314;DHT22;5202;49.138;10.090;2023-04-06T08:18:19;7.00;76.60
10314;DHT22;5202;49.138;10.090;2023-04-06T08:20:47;7.20;74.70
10314;DHT22;5202;49.138;10.090;2023-04-06T08:23:16;7.30;73.30
10314;DHT22;5202;49.138;10.090;2023-04-06T08:25:44;7.30;73.60
10314;DHT22;5202;49.138;10.090;2023-04-06T08:28:13;7.50;70.10
10314;DHT22;5202;49.138;10.090;2023-04-06T08:30:41;7.60;71.30
10314;DHT22;5202;49.138;10.090;2023-04-06T08:33:10;7.70;70.20
10314;DHT22;5202;49.138;10.090;2023-04-06T08:35:40;7.70;69.80
10314;DHT22;5202;49.138;10.090;2023-04-06T08:38:08;7.80;66.80
10314;DHT22;5202;49.138;10.090;2023-04-06T08:40:37;7.80;68.00
10314;DHT22;5202;49.138;10.090;2023-04-06T08:43:08;7.70;66.40
10314;DHT22;5202;49.138;10.090;2023-04-06T08:45:40;7.80;68.50
10314;DHT22;5202;49.138;10.090;2023-04-06T08:48:08;8.00;67.40
10314;DHT22;5202;49.138;10.090;2023-04-06T08:50:39;8.20;67.00
10314;DHT22;5202;49.138;10.090;2023-04-06T08:53:08;8.30;65.40
10314;DHT22;5202;49.138;10.090;2023-04-06T08:55:37;8.40;64.90
10314;DHT22;5202;49.138;10.090;2023-04-06T08:58:06;8.40;64.80
10314;DHT22;5202;49.138;10.090;2023-04-06T09:00:37;8.40;65.10
10314;DHT22;5202;49.138;10.090;2023-04-06T09:03:07;8.60;64.00
10314;DHT22;5202;49.138;10.090;2023-04-06T09:05:36;8.80;63.10
10314;DHT22;5202;49.138;10.090;2023-04-06T09:08:07;8.90;62.10
10314;DHT22;5202;49.138;10.090;2023-04-06T09:10:36;8.70;61.60
10314;DHT22;5202;49.138;10.090;2023-04-06T09:13:08;8.60;58.70
10314;DHT22;5202;49.138;10.090;2023-04-06T09:15:37;9.00;65.50
10314;DHT22;5202;49.138;10.090;2023-04-06T09:18:06;9.20;59.50
10314;DHT22;5202;49.138;10.090;2023-04-06T09:20:35;9.40;58.20
10314;DHT22;5202;49.138;10.090;2023-04-06T09:23:04;9.50;57.90
10314;DHT22;5202;49.138;10.090;2023-04-06T09:25:33;9.60;59.50
10314;DHT22;5202;49.138;10.090;2023-04-06T09:28:02;9.80;63.90
10314;DHT22;5202;49.138;10.090;2023-04-06T09:30:33;10.10;62.60
10314;DHT22;5202;49.138;10.090;2023-04-06T09:33:03;10.50;63.90
10314;DHT22;5202;49.138;10.090;2023-04-06T09:35:31;10.60;62.60
10314;DHT22;5202;49.138;10.090;2023-04-06T09:38:11;10.80;61.30
10314;DHT22;5202;49.138;10.090;2023-04-06T09:40:48;11.00;65.10
10314;DHT22;5202;49.138;10.090;2023-04-06T09:43:27;11.20;63.20
10314;DHT22;5202;49.138;10.090;2023-04-06T09:45:56;11.40;62.60
10314;DHT22;5202;49.138;10.090;2023-04-06T09:48:26;11.60;61.00
10314;DHT22;5202;49.138;10.090;2023-04-06T09:50:59;11.40;55.20
10314;DHT22;5202;49.138;10.090;2023-04-06T09:53:35;11.40;58.30
10314;DHT22;5202;49.138;10.090;2023-04-06T09:56:11;11.20;56.90
10314;DHT22;5202;49.138;10.090;2023-04-06T09:58:41;11.10;52.90
10314;DHT22;5202;49.138;10.090;2023-04-06T10:01:13;10.80;53.30
10314;DHT22;5202;49.138;10.090;2023-04-06T10:04:17;10.50;52.50
10314;DHT22;5202;49.138;10.090;2023-04-06T10:06:52;10.30;53.90
10314;DHT22;5202;49.138;10.090;2023-04-06T10:09:25;10.30;53.60
10314;DHT22;5202;49.138;10.090;2023-04-06T10:12:03;10.40;53.90
10314;DHT22;5202;49.138;10.090;2023-04-06T10:14:33;10.80;58.30
10314;DHT22;5202;49.138;10.090;2023-04-06T10:17:04;10.90;52.90
10314;DHT22;5202;49.138;10.090;2023-04-06T10:19:39;10.90;55.80
10314;DHT22;5202;49.138;10.090;2023-04-06T10:22:21;11.10;53.60
10314;DHT22;5202;49.138;10.090;2023-04-06T10:24:55;11.40;53.90
10314;DHT22;5202;49.138;10.090;2023-04-06T10:27:30;11.30;51.30
10314;DHT22;5202;49.138;10.090;2023-04-06T10:30:03;11.40;51.80
10314;DHT22;5202;49.138;10.090;2023-04-06T10:32:34;11.40;50.40
10314;DHT22;5202;49.138;10.090;2023-04-06T10:35:11;11.50;50.40
10314;DHT22;5202;49.138;10.090;2023-04-06T10:37:51;11.80;53.70
10314;DHT22;5202;49.138;10.090;2023-04-06T10:40:23;12.20;57.30
10314;DHT22;5202;49.138;10.090;2023-04-06T10:42:53;12.60;58.30
10314;DHT22;5202;49.138;10.090;2023-04-06T10:45:23;12.90;60.30
10314;DHT22;5202;49.138;10.090;2023-04-06T10:47:53;13.20;59.60
10314;DHT22;5202;49.138;10.090;2023-04-06T10:50:22;13.50;57.80
10314;DHT22;5202;49.138;10.090;2023-04-06T10:53:02;13.60;52.10
10314;DHT22;5202;49.138;10.090;2023-04-06T10:55:33;13.50;53.90
10314;DHT22;5202;49.138;10.090;2023-04-06T10:58:01;13.70;55.10
10314;DHT22;5202;49.138;10.090;2023-04-06T11:00:30;13.80;54.50
10314;DHT22;5202;49.138;10.090;2023-04-06T11:03:16;13.70;52.70
10314;DHT22;5202;49.138;10.090;2023-04-06T11:05:45;13.40;50.80
10314;DHT22;5202;49.138;10.090;2023-04-06T11:08:25;13.20;47.80
10314;DHT22;5202;49.138;10.090;2023-04-06T11:11:05;13.00;50.30
10314;DHT22;5202;49.138;10.090;2023-04-06T11:13:40;13.20;55.20
10314;DHT22;5202;49.138;10.090;2023-04-06T11:16:15;13.70;54.80
10314;DHT22;5202;49.138;10.090;2023-04-06T11:18:50;14.10;54.80
10314;DHT22;5202;49.138;10.090;2023-04-06T11:21:30;14.30;54.70
10314;DHT22;5202;49.138;10.090;2023-04-06T11:24:07;14.60;56.70
10314;DHT22;5202;49.138;10.090;2023-04-06T11:26:42;14.60;53.70
10314;DHT22;5202;49.138;10.090;2023-04-06T11:29:12;14.70;53.70
10314;DHT22;5202;49.138;10.090;2023-04-06T11:31:44;15.10;56.80
10314;DHT22;5202;49.138;10.090;2023-04-06T11:34:18;15.30;52.40
10314;DHT22;5202;49.138;10.090;2023-04-06T11:36:48;15.40;52.80
10314;DHT22;5202;49.138;10.090;2023-04-06T11:39:22;15.60;50.40
10314;DHT22;5202;49.138;10.090;2023-04-06T11:41:54;15.70;50.50
10314;DHT22;5202;49.138;10.090;2023-04-06T11:44:32;15.90;47.70
10314;DHT22;5202;49.138;10.090;2023-04-06T11:47:02;16.00;49.10
10314;DHT22;5202;49.138;10.090;2023-04-06T11:49:32;16.20;49.90
10314;DHT22;5202;49.138;10.090;2023-04-06T11:52:02;16.20;47.20
10314;DHT22;5202;49.138;10.090;2023-04-06T11:54:32;15.90;46.90
10314;DHT22;5202;49.138;10.090;2023-04-06T11:57:03;15.80;48.60
10314;DHT22;5202;49.138;10.090;2023-04-06T11:59:32;15.10;41.40
10314;DHT22;5202;49.138;10.090;2023-04-06T12:02:01;14.50;44.80
10314;DHT22;5202;49.138;10.090;2023-04-06T12:04:30;14.10;46.00
10314;DHT22;5202;49.138;10.090;2023-04-06T12:07:10;14.30;49.40
10314;DHT22;5202;49.138;10.090;2023-04-06T12:09:38;14.70;48.80
10314;DHT22;5202;49.138;10.090;2023-04-06T12:12:08;14.80;47.90
10314;DHT22;5202;49.138;10.090;2023-04-06T12:14:36;14.60;45.50
10314;DHT22;5202;49.138;10.090;2023-04-06T12:17:05;14.40;44.20
10314;DHT22;5202;49.138;10.090;2023-04-06T12:19:33;14.30;43.60
10314;DHT22;5202;49.138;10.090;2023-04-06T12:22:01;14.50;44.40
10314;DHT22;5202;49.138;10.090;2023-04-06T12:24:30;14.60;44.70
10314;DHT22;5202;49.138;10.090;2023-04-06T12:26:59;14.80;46.60
10314;DHT22;5202;49.138;10.090;2023-04-06T12:29:37;15.10;47.80
10314;DHT22;5202;49.138;10.090;2023-04-06T12:32:05;15.40;47.20
10314;DHT22;5202;49.138;10.090;2023-04-06T12:34:35;15.70;47.20
10314;DHT22;5202;49.138;10.090;2023-04-06T12:37:03;16.30;50.20
10314;DHT22;5202;49.138;10.090;2023-04-06T12:39:31;16.50;47.40
10314;DHT22;5202;49.138;10.090;2023-04-06T12:42:00;16.50;47.20
10314;DHT22;5202;49.138;10.090;2023-04-06T12:44:30;17.00;48.40
10314;DHT22;5202;49.138;10.090;2023-04-06T12:47:00;17.40;46.80
10314;DHT22;5202;49.138;10.090;2023-04-06T12:49:28;16.70;38.60
10314;DHT22;5202;49.138;10.090;2023-04-06T12:51:57;15.80;38.90
10314;DHT22;5202;49.138;10.090;2023-04-06T12:54:27;15.20;37.70
10314;DHT22;5202;49.138;10.090;2023-04-06T12:56:55;15.20;39.70
10314;DHT22;5202;49.138;10.090;2023-04-06T12:59:24;14.60;37.90
10314;DHT22;5202;49.138;10.090;2023-04-06T13:01:53;14.50;38.60
10314;DHT22;5202;49.138;10.090;2023-04-06T13:04:23;14.80;41.60
10314;DHT22;5202;49.138;10.090;2023-04-06T13:06:51;15.20;41.30
10314;DHT22;5202;49.138;10.090;2023-04-06T13:09:20;15.40;42.80
10314;DHT22;5202;49.138;10.090;2023-04-06T13:11:48;15.40;40.50
10314;DHT22;5202;49.138;10.090;2023-04-06T13:14:17;15.30;40.10
10314;DHT22;5202;49.138;10.090;2023-04-06T13:16:46;14.90;38.70
10314;DHT22;5202;49.138;10.090;2023-04-06T13:19:15;14.80;40.30
10314;DHT22;5202;49.138;10.090;2023-04-06T13:21:44;14.60;38.00
10314;DHT22;5202;49.138;10.090;2023-04-06T13:24:14;14.60;39.20
10314;DHT22;5202;49.138;10.090;2023-04-06T13:26:43;15.20;39.90
10314;DHT22;5202;49.138;10.090;2023-04-06T13:29:12;15.40;39.40
10314;DHT22;5202;49.138;10.090;2023-04-06T13:31:40;16.00;43.00
10314;DHT22;5202;49.138;10.090;2023-04-06T13:34:08;16.30;40.20
10314;DHT22;5202;49.138;10.090;2023-04-06T13:36:37;16.10;37.50
10314;DHT22;5202;49.138;10.090;2023-04-06T13:39:09;15.80;37.10
10314;DHT22;5202;49.138;10.090;2023-04-06T13:41:37;16.00;41.10
10314;DHT22;5202;49.138;10.090;2023-04-06T13:44:06;15.80;35.80
10314;DHT22;5202;49.138;10.090;2023-04-06T13:46:35;15.50;37.30
10314;DHT22;5202;49.138;10.090;2023-04-06T13:49:04;15.60;39.10
10314;DHT22;5202;49.138;10.090;2023-04-06T13:51:32;15.30;36.80
10314;DHT22;5202;49.138;10.090;2023-04-06T13:54:02;15.20;36.40
10314;DHT22;5202;49.138;10.090;2023-04-06T13:56:31;15.30;37.20
10314;DHT22;5202;49.138;10.090;2023-04-06T13:59:00;15.30;36.90
10314;DHT22;5202;49.138;10.090;2023-04-06T14:01:31;15.40;37.00
10314;DHT22;5202;49.138;10.090;2023-04-06T14:03:59;15.90;39.70
10314;DHT22;5202;49.138;10.090;2023-04-06T14:06:32;16.70;42.90
10314;DHT22;5202;49.138;10.090;2023-04-06T14:09:01;17.20;41.60
10314;DHT22;5202;49.138;10.090;2023-04-06T14:11:32;17.30;40.30
10314;DHT22;5202;49.138;10.090;2023-04-06T14:14:00;17.40;37.30
10314;DHT22;5202;49.138;10.090;2023-04-06T14:16:29;17.50;38.80
10314;DHT22;5202;49.138;10.090;2023-04-06T14:18:58;17.90;40.80
10314;DHT22;5202;49.138;10.090;2023-04-06T14:21:26;18.20;39.80
10314;DHT22;5202;49.138;10.090;2023-04-06T14:23:55;18.60;39.10
10314;DHT22;5202;49.138;10.090;2023-04-06T14:26:25;18.80;37.90
10314;DHT22;5202;49.138;10.090;2023-04-06T14:28:56;19.00;38.10
10314;DHT22;5202;49.138;10.090;2023-04-06T14:31:24;18.80;34.60
10314;DHT22;5202;49.138;10.090;2023-04-06T14:33:53;18.90;35.20
10314;DHT22;5202;49.138;10.090;2023-04-06T14:36:22;18.10;33.80
10314;DHT22;5202;49.138;10.090;2023-04-06T14:38:50;18.40;37.20
10314;DHT22;5202;49.138;10.090;2023-04-06T14:41:20;18.90;38.40
10314;DHT22;5202;49.138;10.090;2023-04-06T14:43:49;19.00;36.50
10314;DHT22;5202;49.138;10.090;2023-04-06T14:46:20;18.50;35.80
10314;DHT22;5202;49.138;10.090;2023-04-06T14:48:49;18.00;36.00
10314;DHT22;5202;49.138;10.090;2023-04-06T14:51:18;17.80;38.60
10314;DHT22;5202;49.138;10.090;2023-04-06T14:53:46;17.80;37.40
10314;DHT22;5202;49.138;10.090;2023-04-06T14:56:19;17.60;38.10
10314;DHT22;5202;49.138;10.090;2023-04-06T14:58:49;16.90;34.10
10314;DHT22;5202;49.138;10.090;2023-04-06T15:01:19;16.30;36.80
10314;DHT22;5202;49.138;10.090;2023-04-06T15:03:48;15.80;34.40
10314;DHT22;5202;49.138;10.090;2023-04-06T15:06:17;15.40;35.40
10314;DHT22;5202;49.138;10.090;2023-04-06T15:08:47;15.30;36.60
10314;DHT22;5202;49.138;10.090;2023-04-06T15:11:16;15.90;38.30
10314;DHT22;5202;49.138;10.090;2023-04-06T15:13:44;16.70;40.50
10314;DHT22;5202;49.138;10.090;2023-04-06T15:16:13;17.40;39.50
10314;DHT22;5202;49.138;10.090;2023-04-06T15:18:43;18.00;38.10
10314;DHT22;5202;49.138;10.090;2023-04-06T15:21:12;18.50;38.20
10314;DHT22;5202;49.138;10.090;2023-04-06T15:23:40;18.90;38.60
10314;DHT22;5202;49.138;10.090;2023-04-06T15:26:08;18.70;37.60
10314;DHT22;5202;49.138;10.090;2023-04-06T15:28:36;18.30;33.10
10314;DHT22;5202;49.138;10.090;2023-04-06T15:31:13;17.40;33.70
10314;DHT22;5202;49.138;10.090;2023-04-06T15:34:00;17.10;33.90
10314;DHT22;5202;49.138;10.090;2023-04-06T15:36:29;16.80;35.10
10314;DHT22;5202;49.138;10.090;2023-04-06T15:38:58;16.60;37.20
10314;DHT22;5202;49.138;10.090;2023-04-06T15:41:27;16.80;39.90
10314;DHT22;5202;49.138;10.090;2023-04-06T15:43:55;17.00;41.20
10314;DHT22;5202;49.138;10.090;2023-04-06T15:46:24;17.20;41.20
10314;DHT22;5202;49.138;10.090;2023-04-06T15:48:54;17.20;38.80
10314;DHT22;5202;49.138;10.090;2023-04-06T15:51:25;17.20;36.30
10314;DHT22;5202;49.138;10.090;2023-04-06T15:53:55;17.30;39.30
10314;DHT22;5202;49.138;10.090;2023-04-06T15:56:24;17.60;38.50
10314;DHT22;5202;49.138;10.090;2023-04-06T15:58:52;17.30;36.50